sensor_id;sensor_type;location;lat;lon;timestamp;pressure;altitude;pressure_sealevel;temperature;humidity
32735;BME280;19112;51.076;3.706;2023-08-21T00:00:09;101882.38;;;20.27;62.33
32735;BME280;19112;51.076;3.706;2023-08-21T00:02:40;101841.22;;;20.01;62.58
32735;BME280;19112;51.076;3.706;2023-08-21T00:05:08;101811.63;;;19.75;62.70
32735;BME280;19112;51.076;3.706;2023-08-21T00:07:37;102175.97;;;22.01;62.99
32735;BME280;19112;51.076;3.706;2023-08-21T00:10:06;101879.69;;;20.26;63.16
32735;BME280;19112;51.076;3.706;2023-08-21T00:12:32;101792.75;;;19.55;63.00
32735;BME280;19112;51.076;3.706;2023-08-21T00:14:58;101795.34;;;19.50;63.11
32735;BME280;19112;51.076;3.706;2023-08-21T00:17:26;101901.03;;;20.24;63.46
32735;BME280;19112;51.076;3.706;2023-08-21T00:19:52;101764.84;;;19.27;63.30
32735;BME280;19112;51.076;3.706;2023-08-21T00:22:18;101844.44;;;19.69;63.41
32735;BME280;19112;51.076;3.706;2023-08-21T00:24:44;101762.38;;;19.41;63.62
32735;BME280;19112;51.076;3.706;2023-08-21T00:27:13;102167.69;;;21.68;63.68
32735;BME280;19112;51.076;3.706;2023-08-21T00:29:40;101796.03;;;19.35;63.62
32735;BME280;19112;51.076;3.706;2023-08-21T00:32:06;101842.66;;;19.70;63.59
32735;BME280;19112;51.076;3.706;2023-08-21T00:34:33;101925.72;;;20.08;63.67
32735;BME280;19112;51.076;3.706;2023-08-21T00:37:00;101852.44;;;19.71;63.72
32735;BME280;19112;51.076;3.706;2023-08-21T00:39:28;101885.47;;;19.83;64.17
32735;BME280;19112;51.076;3.706;2023-08-21T00:41:58;101967.72;;;20.24;64.45
32735;BME280;19112;51.076;3.706;2023-08-21T00:44:32;101848.56;;;19.49;64.10
32735;BME280;19112;51.076;3.706;2023-08-21T00:46:58;101921.84;;;19.80;64.58
32735;BME280;19112;51.076;3.706;2023-08-21T00:49:24;101920.91;;;19.76;64.38
32735;BME280;19112;51.076;3.706;2023-08-21T00:51:51;101904.06;;;19.79;64.78
32735;BME280;19112;51.076;3.706;2023-08-21T00:54:17;101760.28;;;19.17;64.60
32735;BME280;19112;51.076;3.706;2023-08-21T00:56:44;101758.38;;;19.05;64.67
32735;BME280;19112;51.076;3.706;2023-08-21T00:59:12;101924.94;;;20.18;64.93
32735;BME280;19112;51.076;3.706;2023-08-21T01:01:39;101863.22;;;19.81;64.91
32735;BME280;19112;51.076;3.706;2023-08-21T01:04:06;101802.56;;;19.59;64.75
32735;BME280;19112;51.076;3.706;2023-08-21T01:06:32;101772.22;;;19.48;64.91
32735;BME280;19112;51.076;3.706;2023-08-21T01:11:58;101809.06;;;19.82;64.74
32735;BME280;19112;51.076;3.706;2023-08-21T01:17:19;101826.09;;;20.00;64.69
32735;BME280;19112;51.076;3.706;2023-08-21T01:19:49;101811.94;;;20.04;64.55
32735;BME280;19112;51.076;3.706;2023-08-21T01:22:15;102239.63;;;22.43;65.02
32735;BME280;19112;51.076;3.706;2023-08-21T01:24:44;101760.09;;;19.74;64.64
32735;BME280;19112;51.076;3.706;2023-08-21T01:27:13;101923.44;;;20.43;64.66
32735;BME280;19112;51.076;3.706;2023-08-21T01:29:42;102125.00;;;21.79;64.76
32735;BME280;19112;51.076;3.706;2023-08-21T01:32:27;102186.69;;;22.01;64.68
32735;BME280;19112;51.076;3.706;2023-08-21T01:34:56;101833.28;;;20.07;64.77
32735;BME280;19112;51.076;3.706;2023-08-21T01:37:24;101994.28;;;20.99;64.56
32735;BME280;19112;51.076;3.706;2023-08-21T01:39:53;101809.13;;;19.92;64.49
32735;BME280;19112;51.076;3.706;2023-08-21T01:42:21;101909.38;;;20.58;64.47
32735;BME280;19112;51.076;3.706;2023-08-21T01:44:47;101842.31;;;20.23;64.42
32735;BME280;19112;51.076;3.706;2023-08-21T01:47:14;101782.25;;;19.70;64.29
32735;BME280;19112;51.076;3.706;2023-08-21T01:49:41;102074.75;;;21.34;64.44
32735;BME280;19112;51.076;3.706;2023-08-21T01:52:07;101878.81;;;20.27;64.47
32735;BME280;19112;51.076;3.706;2023-08-21T01:54:36;102009.53;;;21.10;64.71
32735;BME280;19112;51.076;3.706;2023-08-21T01:57:02;101875.22;;;20.23;64.40
32735;BME280;19112;51.076;3.706;2023-08-21T01:59:29;101800.06;;;19.71;64.73
32735;BME280;19112;51.076;3.706;2023-08-21T02:01:58;101783.81;;;19.54;64.67
32735;BME280;19112;51.076;3.706;2023-08-21T02:04:24;102101.38;;;21.29;65.05
32735;BME280;19112;51.076;3.706;2023-08-21T02:06:50;102018.13;;;20.80;64.78
32735;BME280;19112;51.076;3.706;2023-08-21T02:09:18;101903.53;;;20.09;65.03
32735;BME280;19112;51.076;3.706;2023-08-21T02:11:44;101822.19;;;19.66;65.04
32735;BME280;19112;51.076;3.706;2023-08-21T02:14:09;101848.28;;;19.96;64.96
32735;BME280;19112;51.076;3.706;2023-08-21T02:16:36;101862.31;;;19.81;64.88
32735;BME280;19112;51.076;3.706;2023-08-21T02:19:03;101849.94;;;19.84;64.88
32735;BME280;19112;51.076;3.706;2023-08-21T02:21:28;101854.38;;;19.82;64.95
32735;BME280;19112;51.076;3.706;2023-08-21T02:23:54;102077.06;;;21.00;65.03
32735;BME280;19112;51.076;3.706;2023-08-21T02:26:20;101822.81;;;19.48;64.95
32735;BME280;19112;51.076;3.706;2023-08-21T02:28:46;102005.34;;;20.50;64.95
32735;BME280;19112;51.076;3.706;2023-08-21T02:31:12;101891.63;;;19.81;65.15
32735;BME280;19112;51.076;3.706;2023-08-21T02:33:38;101804.94;;;19.36;65.18
32735;BME280;19112;51.076;3.706;2023-08-21T02:36:06;102243.59;;;21.86;65.38
32735;BME280;19112;51.076;3.706;2023-08-21T02:38:33;101821.91;;;19.44;65.01
32735;BME280;19112;51.076;3.706;2023-08-21T02:41:01;101854.03;;;19.58;65.28
32735;BME280;19112;51.076;3.706;2023-08-21T02:43:30;101803.84;;;19.20;65.00
32735;BME280;19112;51.076;3.706;2023-08-21T02:45:58;101912.94;;;19.76;65.06
32735;BME280;19112;51.076;3.706;2023-08-21T02:48:24;101689.25;;;18.47;64.57
32735;BME280;19112;51.076;3.706;2023-08-21T02:50:51;101849.38;;;19.42;64.76
32735;BME280;19112;51.076;3.706;2023-08-21T02:53:23;101916.50;;;19.78;64.95
32735;BME280;19112;51.076;3.706;2023-08-21T02:55:49;101729.22;;;18.53;64.78
32735;BME280;19112;51.076;3.706;2023-08-21T02:58:16;101822.22;;;19.02;64.85
32735;BME280;19112;51.076;3.706;2023-08-21T03:00:41;101781.09;;;18.80;64.86
32735;BME280;19112;51.076;3.706;2023-08-21T03:03:09;101795.50;;;18.96;64.74
32735;BME280;19112;51.076;3.706;2023-08-21T03:05:40;101843.59;;;19.08;64.80
32735;BME280;19112;51.076;3.706;2023-08-21T03:08:06;101840.78;;;18.97;65.08
32735;BME280;19112;51.076;3.706;2023-08-21T03:10:32;101832.59;;;18.83;65.19
32735;BME280;19112;51.076;3.706;2023-08-21T03:13:00;101845.97;;;18.90;65.33
32735;BME280;19112;51.076;3.706;2023-08-21T03:15:26;101926.47;;;19.29;65.41
32735;BME280;19112;51.076;3.706;2023-08-21T03:17:52;101997.34;;;19.77;65.58
32735;BME280;19112;51.076;3.706;2023-08-21T03:20:18;101902.56;;;19.35;65.93
32735;BME280;19112;51.076;3.706;2023-08-21T03:22:45;101791.63;;;18.72;65.73
32735;BME280;19112;51.076;3.706;2023-08-21T03:25:15;102292.13;;;21.39;65.79
32735;BME280;19112;51.076;3.706;2023-08-21T03:27:41;101834.44;;;18.89;65.80
32735;BME280;19112;51.076;3.706;2023-08-21T03:30:13;102096.13;;;20.55;65.78
32735;BME280;19112;51.076;3.706;2023-08-21T03:32:42;101802.16;;;18.66;65.90
32735;BME280;19112;51.076;3.706;2023-08-21T03:35:08;101938.09;;;19.37;65.96
32735;BME280;19112;51.076;3.706;2023-08-21T03:37:38;101920.31;;;19.35;65.83
32735;BME280;19112;51.076;3.706;2023-08-21T03:40:07;102270.75;;;21.37;66.11
32735;BME280;19112;51.076;3.706;2023-08-21T03:42:33;101976.84;;;19.73;66.16
32735;BME280;19112;51.076;3.706;2023-08-21T03:45:06;101831.13;;;19.02;65.90
32735;BME280;19112;51.076;3.706;2023-08-21T03:47:32;101676.91;;;17.92;66.05
32735;BME280;19112;51.076;3.706;2023-08-21T03:49:58;101879.28;;;19.21;66.30
32735;BME280;19112;51.076;3.706;2023-08-21T03:52:24;101842.59;;;19.01;66.34
32735;BME280;19112;51.076;3.706;2023-08-21T03:54:50;101652.94;;;17.89;66.32
32735;BME280;19112;51.076;3.706;2023-08-21T03:57:17;102178.44;;;20.92;66.32
32735;BME280;19112;51.076;3.706;2023-08-21T03:59:43;101692.31;;;18.14;66.05
32735;BME280;19112;51.076;3.706;2023-08-21T04:02:09;101759.16;;;18.39;65.93
32735;BME280;19112;51.076;3.706;2023-08-21T04:04:41;101747.59;;;18.37;66.02
32735;BME280;19112;51.076;3.706;2023-08-21T04:07:09;101761.84;;;18.40;66.18
32735;BME280;19112;51.076;3.706;2023-08-21T04:09:39;101801.00;;;18.49;66.27
32735;BME280;19112;51.076;3.706;2023-08-21T04:12:11;101909.31;;;19.12;66.23
32735;BME280;19112;51.076;3.706;2023-08-21T04:14:38;101926.09;;;19.06;66.10
32735;BME280;19112;51.076;3.706;2023-08-21T04:17:04;101645.28;;;17.57;66.36
32735;BME280;19112;51.076;3.706;2023-08-21T04:19:34;101817.63;;;18.37;66.53
32735;BME280;19112;51.076;3.706;2023-08-21T04:22:00;102124.66;;;19.97;66.79
32735;BME280;19112;51.076;3.706;2023-08-21T04:24:27;101926.84;;;18.98;66.88
32735;BME280;19112;51.076;3.706;2023-08-21T04:26:54;101943.22;;;18.69;66.99
32735;BME280;19112;51.076;3.706;2023-08-21T04:29:26;101829.72;;;18.17;67.33
32735;BME280;19112;51.076;3.706;2023-08-21T04:31:53;101755.13;;;17.61;67.26
32735;BME280;19112;51.076;3.706;2023-08-21T04:34:19;101781.94;;;17.73;67.53
32735;BME280;19112;51.076;3.706;2023-08-21T04:36:48;101881.03;;;18.14;67.73
32735;BME280;19112;51.076;3.706;2023-08-21T04:39:14;101803.13;;;17.71;67.78
32735;BME280;19112;51.076;3.706;2023-08-21T04:41:41;102308.34;;;20.33;68.18
32735;BME280;19112;51.076;3.706;2023-08-21T04:44:10;101833.91;;;17.62;68.18
32735;BME280;19112;51.076;3.706;2023-08-21T04:46:36;102274.47;;;20.27;68.50
32735;BME280;19112;51.076;3.706;2023-08-21T04:49:06;102114.84;;;19.40;68.45
32735;BME280;19112;51.076;3.706;2023-08-21T04:51:32;101951.13;;;18.19;67.98
32735;BME280;19112;51.076;3.706;2023-08-21T04:54:02;102156.59;;;19.42;68.70
32735;BME280;19112;51.076;3.706;2023-08-21T04:56:35;101802.59;;;17.45;68.49
32735;BME280;19112;51.076;3.706;2023-08-21T04:59:07;101875.41;;;17.97;68.58
32735;BME280;19112;51.076;3.706;2023-08-21T05:01:35;102082.44;;;19.15;68.93
32735;BME280;19112;51.076;3.706;2023-08-21T05:04:10;101715.56;;;16.85;68.84
32735;BME280;19112;51.076;3.706;2023-08-21T05:06:36;101895.66;;;17.92;69.13
32735;BME280;19112;51.076;3.706;2023-08-21T05:09:08;101768.50;;;17.21;69.32
32735;BME280;19112;51.076;3.706;2023-08-21T05:11:34;102042.19;;;18.97;69.29
32735;BME280;19112;51.076;3.706;2023-08-21T05:14:06;101917.28;;;18.11;68.90
32735;BME280;19112;51.076;3.706;2023-08-21T05:16:33;101819.13;;;17.73;69.10
32735;BME280;19112;51.076;3.706;2023-08-21T05:18:59;101908.78;;;18.30;69.38
32735;BME280;19112;51.076;3.706;2023-08-21T05:21:25;101939.09;;;18.38;69.41
32735;BME280;19112;51.076;3.706;2023-08-21T05:23:52;101917.47;;;18.20;69.51
32735;BME280;19112;51.076;3.706;2023-08-21T05:26:19;101903.44;;;18.27;69.31
32735;BME280;19112;51.076;3.706;2023-08-21T05:28:45;101844.41;;;17.98;69.46
32735;BME280;19112;51.076;3.706;2023-08-21T05:31:11;102249.09;;;20.51;69.56
32735;BME280;19112;51.076;3.706;2023-08-21T05:33:40;101991.00;;;19.13;69.24
32735;BME280;19112;51.076;3.706;2023-08-21T05:36:07;101895.88;;;18.50;69.05
32735;BME280;19112;51.076;3.706;2023-08-21T05:38:33;101777.19;;;18.03;69.02
32735;BME280;19112;51.076;3.706;2023-08-21T05:41:02;101920.41;;;18.85;68.86
32735;BME280;19112;51.076;3.706;2023-08-21T05:43:28;101943.63;;;18.92;68.74
32735;BME280;19112;51.076;3.706;2023-08-21T05:46:00;101866.50;;;18.44;68.58
32735;BME280;19112;51.076;3.706;2023-08-21T05:48:25;101861.84;;;18.30;68.48
32735;BME280;19112;51.076;3.706;2023-08-21T05:50:57;101950.00;;;19.02;68.60
32735;BME280;19112;51.076;3.706;2023-08-21T05:53:23;101767.25;;;17.92;68.37
32735;BME280;19112;51.076;3.706;2023-08-21T05:55:54;101960.69;;;19.05;68.35
32735;BME280;19112;51.076;3.706;2023-08-21T05:58:21;101963.44;;;19.11;68.25
32735;BME280;19112;51.076;3.706;2023-08-21T06:00:48;101952.34;;;18.85;68.02
32735;BME280;19112;51.076;3.706;2023-08-21T06:03:15;101970.34;;;19.00;68.54
32735;BME280;19112;51.076;3.706;2023-08-21T06:05:43;101848.78;;;18.44;68.47
32735;BME280;19112;51.076;3.706;2023-08-21T06:08:10;102095.03;;;19.77;68.21
32735;BME280;19112;51.076;3.706;2023-08-21T06:10:37;101953.41;;;18.95;68.36
32735;BME280;19112;51.076;3.706;2023-08-21T06:13:05;101967.06;;;19.16;68.35
32735;BME280;19112;51.076;3.706;2023-08-21T06:15:37;101936.06;;;19.20;68.38
32735;BME280;19112;51.076;3.706;2023-08-21T06:18:08;102035.63;;;19.85;68.40
32735;BME280;19112;51.076;3.706;2023-08-21T06:20:37;101824.31;;;18.65;68.50
32735;BME280;19112;51.076;3.706;2023-08-21T06:23:03;102106.41;;;20.24;68.53
32735;BME280;19112;51.076;3.706;2023-08-21T06:25:32;101855.66;;;18.84;68.50
32735;BME280;19112;51.076;3.706;2023-08-21T06:28:00;101859.94;;;18.73;68.66
32735;BME280;19112;51.076;3.706;2023-08-21T06:30:28;102005.28;;;19.74;68.74
32735;BME280;19112;51.076;3.706;2023-08-21T06:32:55;102049.03;;;19.92;68.93
32735;BME280;19112;51.076;3.706;2023-08-21T06:35:22;102083.25;;;20.23;69.23
32735;BME280;19112;51.076;3.706;2023-08-21T06:37:48;101851.22;;;18.83;69.17
32735;BME280;19112;51.076;3.706;2023-08-21T06:40:14;101781.50;;;18.48;69.38
32735;BME280;19112;51.076;3.706;2023-08-21T06:42:40;101922.91;;;19.29;69.54
32735;BME280;19112;51.076;3.706;2023-08-21T06:45:06;102001.72;;;19.75;69.93
32735;BME280;19112;51.076;3.706;2023-08-21T06:47:33;101894.50;;;19.31;69.52
32735;BME280;19112;51.076;3.706;2023-08-21T06:49:59;101956.34;;;19.69;69.97
32735;BME280;19112;51.076;3.706;2023-08-21T06:52:27;101968.94;;;19.81;69.85
32735;BME280;19112;51.076;3.706;2023-08-21T06:54:53;101993.91;;;19.87;69.74
32735;BME280;19112;51.076;3.706;2023-08-21T06:57:20;102075.63;;;20.49;69.93
32735;BME280;19112;51.076;3.706;2023-08-21T06:59:46;101826.69;;;19.06;69.90
32735;BME280;19112;51.076;3.706;2023-08-21T07:02:12;101919.78;;;19.59;69.95
32735;BME280;19112;51.076;3.706;2023-08-21T07:04:40;102150.72;;;20.80;70.05
32735;BME280;19112;51.076;3.706;2023-08-21T07:07:06;102009.09;;;19.93;70.70
32735;BME280;19112;51.076;3.706;2023-08-21T07:09:35;102127.53;;;20.74;70.88
32735;BME280;19112;51.076;3.706;2023-08-21T07:12:01;102182.19;;;21.07;70.64
32735;BME280;19112;51.076;3.706;2023-08-21T07:14:30;102065.00;;;20.54;70.60
32735;BME280;19112;51.076;3.706;2023-08-21T07:16:56;101933.47;;;19.86;70.37
32735;BME280;19112;51.076;3.706;2023-08-21T07:19:24;101844.81;;;19.33;70.38
32735;BME280;19112;51.076;3.706;2023-08-21T07:21:50;101964.75;;;20.01;70.50
32735;BME280;19112;51.076;3.706;2023-08-21T07:24:17;101893.84;;;19.46;70.88
32735;BME280;19112;51.076;3.706;2023-08-21T07:26:42;102265.91;;;21.88;70.69
32735;BME280;19112;51.076;3.706;2023-08-21T07:29:09;101935.41;;;20.00;70.88
32735;BME280;19112;51.076;3.706;2023-08-21T07:31:35;101870.38;;;19.85;70.48
32735;BME280;19112;51.076;3.706;2023-08-21T07:34:03;102344.03;;;22.47;70.54
32735;BME280;19112;51.076;3.706;2023-08-21T07:36:28;101847.91;;;19.65;70.66
32735;BME280;19112;51.076;3.706;2023-08-21T07:38:55;102001.00;;;20.58;70.34
32735;BME280;19112;51.076;3.706;2023-08-21T07:41:20;101883.94;;;20.07;69.97
32735;BME280;19112;51.076;3.706;2023-08-21T07:43:46;101915.09;;;20.12;70.15
32735;BME280;19112;51.076;3.706;2023-08-21T07:46:13;101947.28;;;20.29;70.10
32735;BME280;19112;51.076;3.706;2023-08-21T07:48:43;101933.16;;;20.36;70.28
32735;BME280;19112;51.076;3.706;2023-08-21T07:51:09;102102.44;;;21.42;70.35
32735;BME280;19112;51.076;3.706;2023-08-21T07:53:36;102154.38;;;21.75;70.00
32735;BME280;19112;51.076;3.706;2023-08-21T07:56:13;102338.22;;;23.02;70.07
32735;BME280;19112;51.076;3.706;2023-08-21T07:58:39;102104.41;;;21.66;69.67
32735;BME280;19112;51.076;3.706;2023-08-21T08:01:05;102069.50;;;21.46;69.53
32735;BME280;19112;51.076;3.706;2023-08-21T08:03:31;102123.28;;;21.84;69.71
32735;BME280;19112;51.076;3.706;2023-08-21T08:05:59;102352.59;;;23.18;69.74
32735;BME280;19112;51.076;3.706;2023-08-21T08:08:25;102002.34;;;21.08;69.64
32735;BME280;19112;51.076;3.706;2023-08-21T08:10:53;102016.84;;;21.31;69.78
32735;BME280;19112;51.076;3.706;2023-08-21T08:13:19;102032.03;;;21.40;69.04
32735;BME280;19112;51.076;3.706;2023-08-21T08:15:46;101938.13;;;20.88;69.11
32735;BME280;19112;51.076;3.706;2023-08-21T08:18:15;101870.28;;;20.63;69.00
32735;BME280;19112;51.076;3.706;2023-08-21T08:20:43;102103.84;;;22.13;68.94
32735;BME280;19112;51.076;3.706;2023-08-21T08:23:09;102053.59;;;21.63;68.66
32735;BME280;19112;51.076;3.706;2023-08-21T08:25:35;102004.53;;;21.53;68.28
32735;BME280;19112;51.076;3.706;2023-08-21T08:28:01;101874.94;;;20.90;68.31
32735;BME280;19112;51.076;3.706;2023-08-21T08:30:28;102217.56;;;22.87;68.34
32735;BME280;19112;51.076;3.706;2023-08-21T08:32:54;101952.78;;;21.42;68.39
32735;BME280;19112;51.076;3.706;2023-08-21T08:35:20;102002.00;;;21.75;68.69
32735;BME280;19112;51.076;3.706;2023-08-21T08:37:46;101979.69;;;21.68;68.33
32735;BME280;19112;51.076;3.706;2023-08-21T08:40:12;101919.00;;;21.55;68.01
32735;BME280;19112;51.076;3.706;2023-08-21T08:42:40;102340.41;;;24.16;67.72
32735;BME280;19112;51.076;3.706;2023-08-21T08:45:06;102044.25;;;22.44;67.44
32735;BME280;19112;51.076;3.706;2023-08-21T08:47:35;101966.47;;;22.00;66.86
32735;BME280;19112;51.076;3.706;2023-08-21T08:50:06;102184.69;;;23.35;66.65
32735;BME280;19112;51.076;3.706;2023-08-21T08:52:38;102017.47;;;22.43;66.78
32735;BME280;19112;51.076;3.706;2023-08-21T08:55:06;102156.09;;;23.31;66.78
32735;BME280;19112;51.076;3.706;2023-08-21T08:57:33;102044.31;;;22.72;66.65
32735;BME280;19112;51.076;3.706;2023-08-21T09:00:00;101987.97;;;22.29;66.61
32735;BME280;19112;51.076;3.706;2023-08-21T09:02:31;101921.09;;;22.21;65.99
32735;BME280;19112;51.076;3.706;2023-08-21T09:05:00;102064.97;;;23.07;65.46
32735;BME280;19112;51.076;3.706;2023-08-21T09:07:26;101941.63;;;22.35;65.60
32735;BME280;19112;51.076;3.706;2023-08-21T09:09:52;101985.41;;;22.60;65.85
32735;BME280;19112;51.076;3.706;2023-08-21T09:12:20;102338.63;;;24.75;65.28
32735;BME280;19112;51.076;3.706;2023-08-21T09:14:46;102035.47;;;23.13;64.79
32735;BME280;19112;51.076;3.706;2023-08-21T09:17:22;101996.16;;;22.93;64.12
32735;BME280;19112;51.076;3.706;2023-08-21T09:19:49;101917.53;;;22.29;63.68
32735;BME280;19112;51.076;3.706;2023-08-21T09:22:17;102055.13;;;23.18;63.19
32735;BME280;19112;51.076;3.706;2023-08-21T09:25:07;102125.75;;;23.87;63.54
32735;BME280;19112;51.076;3.706;2023-08-21T09:27:38;101991.69;;;23.00;62.23
32735;BME280;19112;51.076;3.706;2023-08-21T09:30:11;102010.44;;;23.17;62.50
32735;BME280;19112;51.076;3.706;2023-08-21T09:32:59;102339.44;;;25.03;62.59
32735;BME280;19112;51.076;3.706;2023-08-21T09:35:33;102032.78;;;23.04;61.54
32735;BME280;19112;51.076;3.706;2023-08-21T09:38:00;102009.56;;;23.03;61.06
32735;BME280;19112;51.076;3.706;2023-08-21T09:40:27;101961.31;;;22.84;61.20
32735;BME280;19112;51.076;3.706;2023-08-21T09:42:54;102123.06;;;23.87;61.34
32735;BME280;19112;51.076;3.706;2023-08-21T09:45:23;102027.44;;;23.40;61.18
32735;BME280;19112;51.076;3.706;2023-08-21T09:47:52;102027.41;;;23.60;61.05
32735;BME280;19112;51.076;3.706;2023-08-21T09:50:21;101969.31;;;23.58;60.75
32735;BME280;19112;51.076;3.706;2023-08-21T09:52:48;102239.91;;;25.29;60.84
32735;BME280;19112;51.076;3.706;2023-08-21T09:55:14;102261.31;;;25.46;59.88
32735;BME280;19112;51.076;3.706;2023-08-21T09:57:42;101953.19;;;23.77;59.72
32735;BME280;19112;51.076;3.706;2023-08-21T10:00:11;102099.59;;;24.63;59.47
32735;BME280;19112;51.076;3.706;2023-08-21T10:02:50;102338.84;;;26.27;58.89
32735;BME280;19112;51.076;3.706;2023-08-21T10:05:17;102119.94;;;25.05;58.55
32735;BME280;19112;51.076;3.706;2023-08-21T10:07:49;102020.91;;;24.45;58.01
32735;BME280;19112;51.076;3.706;2023-08-21T10:10:18;102200.22;;;25.68;57.16
32735;BME280;19112;51.076;3.706;2023-08-21T10:12:47;101972.63;;;24.36;58.17
32735;BME280;19112;51.076;3.706;2023-08-21T10:15:13;102022.66;;;24.52;58.14
32735;BME280;19112;51.076;3.706;2023-08-21T10:17:43;102026.16;;;24.67;58.47
32735;BME280;19112;51.076;3.706;2023-08-21T10:20:10;102034.03;;;24.90;57.67
32735;BME280;19112;51.076;3.706;2023-08-21T10:22:47;102165.13;;;25.81;57.01
32735;BME280;19112;51.076;3.706;2023-08-21T10:25:22;101903.69;;;24.34;56.90
32735;BME280;19112;51.076;3.706;2023-08-21T10:27:55;101938.38;;;24.66;56.77
32735;BME280;19112;51.076;3.706;2023-08-21T10:30:28;102057.97;;;25.28;57.10
32735;BME280;19112;51.076;3.706;2023-08-21T10:32:57;102022.22;;;25.17;55.99
32735;BME280;19112;51.076;3.706;2023-08-21T10:35:45;102305.66;;;27.14;55.52
32735;BME280;19112;51.076;3.706;2023-08-21T10:38:14;102240.75;;;26.52;54.93
32735;BME280;19112;51.076;3.706;2023-08-21T10:41:05;102297.69;;;27.00;54.21
32735;BME280;19112;51.076;3.706;2023-08-21T10:43:46;102312.03;;;27.05;54.47
32735;BME280;19112;51.076;3.706;2023-08-21T10:46:13;102032.63;;;25.55;52.14
32735;BME280;19112;51.076;3.706;2023-08-21T10:48:43;101971.03;;;25.27;52.67
32735;BME280;19112;51.076;3.706;2023-08-21T10:51:09;101939.84;;;25.03;53.03
32735;BME280;19112;51.076;3.706;2023-08-21T10:53:35;102006.88;;;25.31;51.43
32735;BME280;19112;51.076;3.706;2023-08-21T10:56:04;102322.38;;;27.44;51.19
32735;BME280;19112;51.076;3.706;2023-08-21T10:58:44;101947.56;;;25.43;51.72
32735;BME280;19112;51.076;3.706;2023-08-21T11:01:15;102043.78;;;26.03;52.04
32735;BME280;19112;51.076;3.706;2023-08-21T11:03:49;102028.59;;;25.97;50.76
32735;BME280;19112;51.076;3.706;2023-08-21T11:06:19;101912.94;;;25.13;51.24
32735;BME280;19112;51.076;3.706;2023-08-21T11:08:45;101929.53;;;25.54;50.32
32735;BME280;19112;51.076;3.706;2023-08-21T11:11:10;102040.97;;;26.13;49.60
32735;BME280;19112;51.076;3.706;2023-08-21T11:13:37;101964.25;;;25.79;49.37
32735;BME280;19112;51.076;3.706;2023-08-21T11:16:05;101937.44;;;25.67;50.06
32735;BME280;19112;51.076;3.706;2023-08-21T11:18:37;101974.50;;;26.19;49.20
32735;BME280;19112;51.076;3.706;2023-08-21T11:21:11;102169.44;;;27.46;47.51
32735;BME280;19112;51.076;3.706;2023-08-21T11:23:42;101894.19;;;25.85;47.60
32735;BME280;19112;51.076;3.706;2023-08-21T11:26:13;101958.78;;;25.85;47.85
32735;BME280;19112;51.076;3.706;2023-08-21T11:28:41;102139.31;;;27.18;47.59
32735;BME280;19112;51.076;3.706;2023-08-21T11:31:10;102099.16;;;26.96;47.82
32735;BME280;19112;51.076;3.706;2023-08-21T11:33:50;101967.75;;;26.52;47.73
32735;BME280;19112;51.076;3.706;2023-08-21T11:36:17;102050.72;;;26.92;48.48
32735;BME280;19112;51.076;3.706;2023-08-21T11:39:01;101984.63;;;26.66;48.36
32735;BME280;19112;51.076;3.706;2023-08-21T11:41:31;101945.50;;;26.37;48.39
32735;BME280;19112;51.076;3.706;2023-08-21T11:44:06;102185.34;;;27.64;48.10
32735;BME280;19112;51.076;3.706;2023-08-21T11:46:40;101926.41;;;26.56;47.65
32735;BME280;19112;51.076;3.706;2023-08-21T11:49:07;102068.81;;;27.40;47.50
32735;BME280;19112;51.076;3.706;2023-08-21T11:51:41;101970.78;;;26.87;48.26
32735;BME280;19112;51.076;3.706;2023-08-21T11:54:08;102287.72;;;28.83;46.98
32735;BME280;19112;51.076;3.706;2023-08-21T11:56:35;101946.22;;;27.07;46.94
32735;BME280;19112;51.076;3.706;2023-08-21T11:59:05;102009.31;;;27.48;45.45
32735;BME280;19112;51.076;3.706;2023-08-21T12:01:35;102050.81;;;27.92;45.63
32735;BME280;19112;51.076;3.706;2023-08-21T12:04:06;102282.25;;;29.31;44.63
32735;BME280;19112;51.076;3.706;2023-08-21T12:06:44;102209.16;;;28.89;45.27
32735;BME280;19112;51.076;3.706;2023-08-21T12:09:10;102127.28;;;28.40;44.17
32735;BME280;19112;51.076;3.706;2023-08-21T12:11:36;102126.97;;;28.56;43.70
32735;BME280;19112;51.076;3.706;2023-08-21T12:14:05;102010.78;;;27.64;43.23
32735;BME280;19112;51.076;3.706;2023-08-21T12:16:31;102067.59;;;28.06;43.70
32735;BME280;19112;51.076;3.706;2023-08-21T12:18:58;101979.41;;;27.60;42.50
32735;BME280;19112;51.076;3.706;2023-08-21T12:21:25;102057.63;;;28.10;42.82
32735;BME280;19112;51.076;3.706;2023-08-21T12:23:50;102036.00;;;28.11;42.83
32735;BME280;19112;51.076;3.706;2023-08-21T12:26:17;102011.19;;;27.91;43.58
32735;BME280;19112;51.076;3.706;2023-08-21T12:28:49;102075.91;;;28.42;40.98
32735;BME280;19112;51.076;3.706;2023-08-21T12:31:15;101944.38;;;27.57;41.83
32735;BME280;19112;51.076;3.706;2023-08-21T12:33:42;102178.78;;;29.19;41.90
32735;BME280;19112;51.076;3.706;2023-08-21T12:36:08;102151.88;;;29.12;42.26
32735;BME280;19112;51.076;3.706;2023-08-21T12:38:36;102022.50;;;28.53;41.46
32735;BME280;19112;51.076;3.706;2023-08-21T12:41:02;101972.38;;;28.40;40.68
32735;BME280;19112;51.076;3.706;2023-08-21T12:43:30;102033.34;;;28.90;40.04
32735;BME280;19112;51.076;3.706;2023-08-21T12:45:56;102255.53;;;30.29;39.62
32735;BME280;19112;51.076;3.706;2023-08-21T12:48:22;102113.56;;;29.30;40.47
32735;BME280;19112;51.076;3.706;2023-08-21T12:50:48;102176.34;;;29.44;40.52
32735;BME280;19112;51.076;3.706;2023-08-21T12:53:13;102110.53;;;29.07;40.00
32735;BME280;19112;51.076;3.706;2023-08-21T12:55:39;102032.97;;;28.68;40.78
32735;BME280;19112;51.076;3.706;2023-08-21T12:58:05;102001.53;;;28.64;40.36
32735;BME280;19112;51.076;3.706;2023-08-21T13:00:31;102050.00;;;29.11;39.68